Time;durP1;ratioP1;P1;durP2;ratioP2;P2;SDS_P1;SDS_P2;PMS_P1;PMS_P2;Temp;Humidity;BMP_temperature;BMP_pressure;BME280_temperature;BME280_humidity;BME280_pressure;Samples;Min_cycle;Max_cycle;Signal;HPM_P1;HPM_P2
2023/04/11 00:00:57;;;;;;;1.08;1.08;;;;;;;5.20;95.04;99382.47;4501503;31;34627;-79
2023/04/11 00:03:26;;;;;;;4.87;3.70;;;;;;;4.79;97.45;99372.50;4501087;31;35116;-79
2023/04/11 00:05:54;;;;;;;1.25;1.23;;;;;;;4.87;96.83;99373.47;4473511;31;34118;-79
2023/04/11 00:08:22;;;;;;;0.70;0.70;;;;;;;4.56;98.16;99370.47;4487087;31;33508;-79
2023/04/11 00:10:51;;;;;;;0.80;0.80;;;;;;;4.63;98.63;99374.00;4486750;31;32088;-79
2023/04/11 00:13:19;;;;;;;2.75;2.37;;;;;;;4.70;99.68;99359.50;4501096;31;35153;-79
2023/04/11 00:15:47;;;;;;;1.92;1.83;;;;;;;5.10;97.56;99360.84;4501093;31;34545;-79
2023/04/11 00:18:15;;;;;;;1.35;1.25;;;;;;;4.81;97.16;99351.91;4501110;31;33313;-79
2023/04/11 00:20:43;;;;;;;1.67;1.58;;;;;;;4.93;95.62;99349.47;4501019;31;34022;-81
2023/04/11 00:23:11;;;;;;;0.70;0.70;;;;;;;4.53;100.00;99346.37;4500619;31;34962;-79
2023/04/11 00:25:40;;;;;;;1.30;1.30;;;;;;;4.86;99.51;99345.09;4500880;31;34454;-79
2023/04/11 00:28:08;;;;;;;0.80;0.77;;;;;;;4.77;97.05;99345.81;4500906;31;34433;-80
2023/04/11 00:30:37;;;;;;;1.70;1.58;;;;;;;4.74;97.29;99351.81;4500946;31;33881;-79
2023/04/11 00:33:06;;;;;;;4.22;2.17;;;;;;;4.75;98.10;99350.09;4486724;31;35563;-79
2023/04/11 00:35:36;;;;;;;2.70;2.58;;;;;;;4.99;96.89;99352.09;4500650;31;35336;-79
2023/04/11 00:38:04;;;;;;;1.15;1.15;;;;;;;4.87;97.54;99346.78;4500848;31;33430;-79
2023/04/11 00:40:33;;;;;;;2.33;2.15;;;;;;;4.89;95.77;99345.97;4500752;31;34686;-79
2023/04/11 00:43:01;;;;;;;1.48;0.95;;;;;;;4.47;95.96;99341.12;4500630;31;35836;-78
2023/04/11 00:45:29;;;;;;;1.12;1.12;;;;;;;4.56;94.94;99333.53;4501490;31;35159;-79
2023/04/11 00:47:57;;;;;;;1.55;1.45;;;;;;;4.06;98.32;99342.25;4502797;31;33819;-79
2023/04/11 00:50:26;;;;;;;1.05;1.05;;;;;;;4.39;98.00;99333.28;4502857;31;33442;-79
2023/04/11 00:52:54;;;;;;;0.60;0.60;;;;;;;3.92;100.00;99336.03;4488613;31;34715;-79
2023/04/11 00:55:23;;;;;;;0.65;0.65;;;;;;;3.99;100.00;99331.00;4488387;31;33707;-79
2023/04/11 00:57:52;;;;;;;0.82;0.82;;;;;;;4.05;100.00;99331.94;4502965;31;34259;-80
2023/04/11 01:00:21;;;;;;;1.67;1.40;;;;;;;3.88;99.95;99329.06;4488583;31;34819;-81
2023/04/11 01:02:49;;;;;;;2.85;2.65;;;;;;;3.83;100.00;99334.19;4488596;31;35733;-79
2023/04/11 01:05:18;;;;;;;1.10;1.05;;;;;;;3.92;98.96;99341.19;4502654;31;34452;-79
2023/04/11 01:07:49;;;;;;;2.12;2.03;;;;;;;3.95;99.83;99334.38;4502853;31;34206;-79
2023/04/11 01:10:18;;;;;;;1.80;1.70;;;;;;;3.94;100.00;99322.31;4502744;31;33486;-79
2023/04/11 01:12:46;;;;;;;1.50;1.48;;;;;;;4.46;100.00;99323.91;4502661;31;35759;-78
2023/04/11 01:15:14;;;;;;;1.65;1.55;;;;;;;4.61;100.00;99316.41;4488397;31;34463;-79
2023/04/11 01:17:43;;;;;;;0.73;0.73;;;;;;;3.94;100.00;99318.88;4488550;31;33687;-79
2023/04/11 01:20:11;;;;;;;2.60;2.35;;;;;;;4.28;99.11;99320.25;4502600;31;33924;-79
2023/04/11 01:22:40;;;;;;;1.42;1.20;;;;;;;4.09;96.21;99308.78;4502592;31;35078;-79
2023/04/11 01:25:09;;;;;;;2.08;1.98;;;;;;;3.67;96.29;99309.00;4488355;31;35239;-79
2023/04/11 01:27:37;;;;;;;1.25;1.15;;;;;;;3.52;98.50;99312.19;4488293;31;33322;-79
2023/04/11 01:30:06;;;;;;;0.82;0.82;;;;;;;3.77;97.58;99306.59;4502572;31;34604;-80
2023/04/11 01:32:34;;;;;;;1.27;1.25;;;;;;;3.91;94.44;99303.38;4502555;31;34946;-79
2023/04/11 01:35:03;;;;;;;1.17;1.15;;;;;;;3.93;98.34;99309.41;4488337;31;34333;-79
2023/04/11 01:37:31;;;;;;;1.80;1.67;;;;;;;3.55;100.00;99305.38;4488549;31;33358;-80
2023/04/11 01:40:00;;;;;;;0.70;0.70;;;;;;;3.83;100.00;99313.56;4502490;31;33916;-79
2023/04/11 01:42:29;;;;;;;0.90;0.90;;;;;;;3.07;100.00;99302.78;4488231;31;34909;-79
2023/04/11 01:44:58;;;;;;;1.23;1.23;;;;;;;3.32;100.00;99304.09;4488620;31;35130;-79
2023/04/11 01:47:26;;;;;;;1.02;1.02;;;;;;;3.40;100.00;99290.53;4502329;31;34177;-80
2023/04/11 01:49:54;;;;;;;0.60;0.60;;;;;;;3.37;100.00;99290.50;4488209;31;34023;-79
2023/04/11 01:52:23;;;;;;;1.48;1.42;;;;;;;3.41;100.00;99291.41;4502292;31;35060;-79
2023/04/11 01:54:52;;;;;;;0.77;0.77;;;;;;;3.64;100.00;99296.94;4502220;31;34484;-79
2023/04/11 01:57:20;;;;;;;1.25;1.15;;;;;;;3.31;100.00;99294.66;4475322;31;32956;-79
2023/04/11 01:59:48;;;;;;;1.08;1.05;;;;;;;3.06;100.00;99289.06;4488404;31;34162;-78
2023/04/11 02:02:16;;;;;;;1.70;1.60;;;;;;;3.11;100.00;99286.59;4488455;31;36017;-79
2023/04/11 02:04:45;;;;;;;1.02;0.90;;;;;;;3.31;100.00;99294.66;4502240;31;34046;-79
2023/04/11 02:07:14;;;;;;;1.05;1.05;;;;;;;3.11;100.00;99292.59;4502164;31;33712;-79
2023/04/11 02:09:42;;;;;;;2.00;1.90;;;;;;;2.97;100.00;99288.91;4502247;31;34670;-80
2023/04/11 02:12:10;;;;;;;2.20;1.52;;;;;;;3.04;100.00;99286.47;4475094;31;34217;-79
2023/04/11 02:14:43;;;;;;;0.93;0.93;;;;;;;3.00;100.00;99279.53;4502183;31;34284;-79
2023/04/11 02:17:12;;;;;;;1.25;1.25;;;;;;;3.17;100.00;99278.97;4488468;31;33443;-80
2023/04/11 02:19:44;;;;;;;1.20;1.20;;;;;;;3.09;100.00;99283.09;4488200;31;33845;-79
2023/04/11 02:22:12;;;;;;;0.70;0.70;;;;;;;3.09;100.00;99278.84;4502031;31;35417;-80
2023/04/11 02:24:41;;;;;;;0.95;0.95;;;;;;;3.28;100.00;99287.75;4487886;31;34546;-79
2023/04/11 02:27:09;;;;;;;1.60;1.50;;;;;;;2.94;100.00;99278.56;4474865;31;32650;-79
2023/04/11 02:29:37;;;;;;;4.20;2.97;;;;;;;2.85;100.00;99285.25;4502117;31;34628;-79
2023/04/11 02:32:06;;;;;;;1.00;1.00;;;;;;;2.95;100.00;99277.72;4502091;31;36034;-79
2023/04/11 02:34:34;;;;;;;0.80;0.80;;;;;;;3.09;100.00;99273.69;4502043;31;34817;-79
2023/04/11 02:37:03;;;;;;;2.58;1.20;;;;;;;3.16;100.00;99264.38;4487986;31;33294;-79
2023/04/11 02:39:32;;;;;;;0.80;0.80;;;;;;;3.10;100.00;99262.56;4502012;31;35213;-80
2023/04/11 02:42:00;;;;;;;1.42;1.23;;;;;;;2.98;100.00;99265.78;4502333;31;35802;-79
2023/04/11 02:44:29;;;;;;;1.52;1.42;;;;;;;3.30;100.00;99262.03;4501934;31;34241;-79
2023/04/11 02:46:58;;;;;;;2.72;2.40;;;;;;;3.48;100.00;99262.37;4502341;31;32383;-79
2023/04/11 02:49:27;;;;;;;0.60;0.60;;;;;;;3.79;100.00;99265.41;4502262;31;33631;-79
2023/04/11 02:51:56;;;;;;;2.00;1.90;;;;;;;3.56;99.09;99260.75;4502040;31;35899;-79
2023/04/11 02:54:24;;;;;;;1.42;1.33;;;;;;;2.99;100.00;99267.50;4501880;31;34447;-79
2023/04/11 02:56:54;;;;;;;0.80;0.80;;;;;;;2.99;100.00;99271.78;4487714;31;34413;-81
2023/04/11 02:59:22;;;;;;;1.12;1.12;;;;;;;3.17;100.00;99277.25;4487973;31;33931;-80
2023/04/11 03:01:59;;;;;;;0.70;0.70;;;;;;;3.04;100.00;99278.75;4502047;31;35191;-79
2023/04/11 03:04:27;;;;;;;1.12;1.02;;;;;;;2.73;100.00;99273.88;4488168;31;34444;-79
2023/04/11 03:06:57;;;;;;;1.33;1.23;;;;;;;2.73;100.00;99269.59;4501896;31;33378;-79
2023/04/11 03:09:26;;;;;;;1.12;1.12;;;;;;;2.98;100.00;99270.03;4501583;31;33957;-79
2023/04/11 03:11:54;;;;;;;2.30;2.10;;;;;;;2.72;100.00;99269.53;4501655;31;35025;-79
2023/04/11 03:14:23;;;;;;;1.27;1.27;;;;;;;2.58;100.00;99266.72;4501966;31;35077;-79
2023/04/11 03:16:51;;;;;;;1.25;1.25;;;;;;;2.55;100.00;99271.81;4501850;31;34128;-79
2023/04/11 03:19:19;;;;;;;0.60;0.60;;;;;;;2.46;100.00;99267.34;4487603;31;33985;-79
2023/04/11 03:21:47;;;;;;;0.70;0.70;;;;;;;2.94;100.00;99276.84;4501944;31;35026;-79
2023/04/11 03:24:16;;;;;;;0.80;0.80;;;;;;;2.92;100.00;99270.81;4501687;31;35080;-79
2023/04/11 03:26:44;;;;;;;1.65;1.55;;;;;;;2.78;100.00;99264.53;4501722;31;34267;-80
2023/04/11 03:29:13;;;;;;;9.93;1.60;;;;;;;3.37;100.00;99269.03;4501965;31;33965;-79
2023/04/11 03:31:41;;;;;;;0.95;0.95;;;;;;;3.23;100.00;99266.25;4501973;31;34945;-79
2023/04/11 03:34:09;;;;;;;0.70;0.70;;;;;;;2.38;100.00;99262.06;4501808;31;34513;-79
2023/04/11 03:36:40;;;;;;;1.10;1.10;;;;;;;2.29;100.00;99259.25;4502040;31;33506;-79
2023/04/11 03:39:08;;;;;;;0.77;0.77;;;;;;;2.70;100.00;99259.25;4501572;31;34075;-79
2023/04/11 03:41:36;;;;;;;1.02;1.02;;;;;;;2.95;100.00;99254.59;4501491;31;35121;-79
2023/04/11 03:44:06;;;;;;;1.05;1.05;;;;;;;2.87;100.00;99261.28;4474782;31;33568;-79
2023/04/11 03:46:34;;;;;;;1.10;1.10;;;;;;;2.61;100.00;99259.06;4501521;31;33791;-79
2023/04/11 03:49:03;;;;;;;3.40;3.08;;;;;;;2.72;100.00;99255.00;4487317;31;34356;-79
2023/04/11 03:51:32;;;;;;;3.08;2.50;;;;;;;2.72;100.00;99252.44;4487187;31;35216;-79
2023/04/11 03:54:00;;;;;;;0.80;0.80;;;;;;;2.64;100.00;99246.28;4501638;31;35200;-79
2023/04/11 03:56:29;;;;;;;2.47;2.22;;;;;;;2.68;100.00;99250.62;4501466;31;34219;-79
2023/04/11 03:58:57;;;;;;;2.15;1.98;;;;;;;3.03;100.00;99250.44;4501644;31;34327;-79
2023/04/11 04:01:26;;;;;;;1.35;1.25;;;;;;;2.78;100.00;99255.13;4487467;31;35760;-79
2023/04/11 04:03:55;;;;;;;0.73;0.73;;;;;;;3.00;100.00;99246.09;4501477;31;34423;-81
2023/04/11 04:06:25;;;;;;;0.95;0.95;;;;;;;2.66;100.00;99244.59;4487217;31;34119;-79
2023/04/11 04:08:54;;;;;;;0.95;0.95;;;;;;;2.52;100.00;99252.03;4501395;31;34850;-80
2023/04/11 04:11:22;;;;;;;1.17;1.17;;;;;;;2.90;100.00;99239.06;4487191;31;34930;-79
2023/04/11 04:13:52;;;;;;;1.92;1.83;;;;;;;3.47;100.00;99245.16;4501418;31;35066;-79
2023/04/11 04:16:21;;;;;;;1.40;1.40;;;;;;;3.58;100.00;99243.66;4501130;31;33400;-79
2023/04/11 04:18:50;;;;;;;0.90;0.90;;;;;;;3.71;100.00;99243.84;4500991;31;34035;-79
2023/04/11 04:21:19;;;;;;;1.15;1.08;;;;;;;3.38;100.00;99240.75;4488423;31;35814;-79
2023/04/11 04:23:49;;;;;;;3.60;3.25;;;;;;;3.07;100.00;99244.50;4488801;31;34496;-79
2023/04/11 04:26:23;;;;;;;1.73;1.62;;;;;;;3.59;99.49;99240.22;4503322;31;34254;-79
2023/04/11 04:28:52;;;;;;;1.20;1.20;;;;;;;3.25;100.00;99245.66;4502978;31;33918;-79
2023/04/11 04:31:24;;;;;;;1.30;1.30;;;;;;;3.24;100.00;99244.78;4503188;31;35046;-79
2023/04/11 04:33:57;;;;;;;3.15;2.55;;;;;;;3.02;100.00;99241.00;4503188;31;34547;-79
2023/04/11 04:36:27;;;;;;;2.22;1.25;;;;;;;3.23;100.00;99238.78;4502840;31;33712;-79
2023/04/11 04:39:00;;;;;;;2.17;2.03;;;;;;;3.14;100.00;99241.22;4488947;31;33833;-79
2023/04/11 04:41:35;;;;;;;3.25;2.03;;;;;;;3.21;100.00;99237.00;4503181;31;35072;-79
2023/04/11 04:44:04;;;;;;;1.25;1.25;;;;;;;3.81;100.00;99232.81;4502924;31;33288;-79
2023/04/11 04:46:35;;;;;;;1.23;1.12;;;;;;;4.59;100.00;99234.69;4503097;31;33362;-79
2023/04/11 04:49:05;;;;;;;0.98;0.98;;;;;;;4.99;100.00;99230.81;4503081;31;34150;-79
2023/04/11 04:51:35;;;;;;;0.82;0.82;;;;;;;5.07;100.00;99225.75;4488660;31;35679;-80
2023/04/11 04:54:05;;;;;;;1.02;1.02;;;;;;;5.58;95.25;99231.34;4503054;31;34419;-80
2023/04/11 04:56:33;;;;;;;0.90;0.90;;;;;;;6.42;89.77;99224.13;4502786;31;33537;-80
2023/04/11 04:59:02;;;;;;;2.72;2.40;;;;;;;6.90;87.67;99228.56;4502998;31;34639;-79
2023/04/11 05:01:31;;;;;;;0.60;0.60;;;;;;;8.25;81.19;99228.50;4502972;31;35983;-80
2023/04/11 05:04:01;;;;;;;1.55;1.50;;;;;;;9.05;78.67;99222.09;4503019;31;33363;-79
2023/04/11 05:06:31;;;;;;;1.17;1.17;;;;;;;9.05;77.89;99227.31;4489123;31;33336;-79
2023/04/11 05:09:01;;;;;;;0.68;0.68;;;;;;;9.64;77.97;99223.37;4488828;31;33902;-79
2023/04/11 05:11:29;;;;;;;2.00;1.62;;;;;;;9.71;75.75;99224.22;4488502;31;35600;-79
2023/04/11 05:13:57;;;;;;;2.08;1.30;;;;;;;9.75;79.79;99217.25;4502864;31;34342;-79
2023/04/11 05:16:26;;;;;;;5.57;2.47;;;;;;;10.33;75.24;99219.25;4488842;31;33517;-79
2023/04/11 05:18:55;;;;;;;2.37;2.20;;;;;;;10.24;73.74;99224.53;4502673;31;33902;-79
2023/04/11 05:21:23;;;;;;;3.40;3.17;;;;;;;10.24;73.92;99214.13;4488682;31;35223;-79
2023/04/11 05:23:52;;;;;;;3.33;2.83;;;;;;;10.87;72.46;99213.38;4502596;31;34436;-79
2023/04/11 05:26:21;;;;;;;1.87;1.75;;;;;;;10.02;78.01;99209.16;4502862;31;34409;-79
2023/04/11 05:28:49;;;;;;;1.40;1.30;;;;;;;10.27;81.48;99208.91;4502562;31;33876;-79
2023/04/11 05:31:17;;;;;;;2.72;2.53;;;;;;;10.94;81.11;99209.78;4488122;31;35155;-79
2023/04/11 05:33:46;;;;;;;0.95;0.95;;;;;;;11.75;73.08;99214.56;4502781;31;34485;-79
2023/04/11 05:36:14;;;;;;;0.77;0.77;;;;;;;11.28;75.08;99213.63;4488653;31;33428;-81
2023/04/11 05:38:43;;;;;;;2.53;1.77;;;;;;;12.07;73.43;99220.97;4502402;31;34856;-79
2023/04/11 05:41:11;;;;;;;1.52;1.42;;;;;;;12.85;71.99;99214.19;4502472;31;35022;-80
2023/04/11 05:43:39;;;;;;;2.25;2.10;;;;;;;13.90;68.97;99201.22;4502416;31;34430;-79
2023/04/11 05:46:08;;;;;;;2.90;2.08;;;;;;;13.08;70.83;99212.81;4502710;31;33559;-78
2023/04/11 05:48:37;;;;;;;1.40;1.30;;;;;;;12.66;73.68;99202.41;4502274;31;33908;-79
2023/04/11 05:51:06;;;;;;;1.65;1.55;;;;;;;12.41;69.39;99205.53;4488233;31;35042;-79
2023/04/11 05:53:34;;;;;;;2.12;1.95;;;;;;;12.30;69.56;99194.44;4502346;31;35947;-78
2023/04/11 05:56:03;;;;;;;4.97;3.35;;;;;;;12.16;68.26;99186.03;4502384;31;33531;-78
2023/04/11 05:58:31;;;;;;;6.90;4.47;;;;;;;12.37;68.29;99193.44;4502331;31;34688;-79
2023/04/11 06:00:59;;;;;;;2.17;2.00;;;;;;;12.18;68.23;99189.44;4502240;31;35440;-79
2023/04/11 06:03:28;;;;;;;1.62;1.52;;;;;;;12.21;68.72;99195.50;4475359;31;34590;-79
2023/04/11 06:05:56;;;;;;;2.50;2.30;;;;;;;12.06;68.19;99190.56;4502111;31;33442;-78
2023/04/11 06:08:24;;;;;;;2.72;2.40;;;;;;;11.75;71.46;99184.16;4502236;31;33889;-78
2023/04/11 06:10:52;;;;;;;2.03;1.83;;;;;;;11.87;70.59;99184.81;4497120;31;34771;-79
2023/04/11 06:13:20;;;;;;;2.53;2.33;;;;;;;12.08;70.31;99183.56;4486339;32;35262;-79
2023/04/11 06:15:48;;;;;;;3.60;3.15;;;;;;;12.27;70.75;99184.94;4473381;32;34426;-79
2023/04/11 06:18:17;;;;;;;1.55;1.45;;;;;;;12.28;70.35;99186.66;4484736;31;34006;-78
2023/04/11 06:20:45;;;;;;;0.70;0.70;;;;;;;12.27;72.37;99179.69;4486117;32;35756;-78
2023/04/11 06:23:14;;;;;;;1.17;1.17;;;;;;;12.98;67.16;99174.72;4479056;32;34022;-78
2023/04/11 06:25:44;;;;;;;2.03;1.92;;;;;;;13.48;64.87;99172.63;4470578;32;33275;-78
2023/04/11 06:28:13;;;;;;;1.52;1.42;;;;;;;12.83;68.40;99178.50;4470408;32;34686;-79
2023/04/11 06:30:40;;;;;;;3.17;2.12;;;;;;;13.12;68.42;99170.00;4456738;32;35031;-80
2023/04/11 06:33:09;;;;;;;2.92;2.22;;;;;;;13.54;66.57;99171.66;4470601;32;35197;-79
2023/04/11 06:35:37;;;;;;;8.10;5.95;;;;;;;14.61;63.31;99165.19;4472350;32;33024;-79
2023/04/11 06:38:05;;;;;;;3.80;3.47;;;;;;;14.39;60.77;99172.81;4469797;32;33971;-80
2023/04/11 06:40:34;;;;;;;1.23;1.23;;;;;;;14.47;64.72;99170.84;4455023;32;35164;-80
2023/04/11 06:43:02;;;;;;;1.05;1.05;;;;;;;14.67;62.35;99167.66;4469553;32;34540;-80
2023/04/11 06:45:30;;;;;;;1.48;1.37;;;;;;;15.23;59.12;99171.16;4456101;32;33568;-80
2023/04/11 06:47:58;;;;;;;1.15;0.82;;;;;;;14.77;62.99;99173.44;4470466;32;34085;-79
2023/04/11 06:50:26;;;;;;;1.30;1.17;;;;;;;15.07;61.60;99176.03;4456396;32;35535;-80
2023/04/11 06:52:57;;;;;;;1.95;1.80;;;;;;;15.22;59.93;99180.78;4456712;32;34096;-81
2023/04/11 06:55:25;;;;;;;2.00;1.87;;;;;;;14.78;60.66;99170.78;4470266;32;33511;-80
2023/04/11 06:57:53;;;;;;;2.90;1.87;;;;;;;14.39;63.05;99175.44;4470369;32;33988;-81
2023/04/11 07:00:22;;;;;;;2.00;1.80;;;;;;;14.65;64.78;99165.97;4475568;32;35283;-80
2023/04/11 07:02:51;;;;;;;1.85;1.75;;;;;;;16.05;57.52;99161.41;4469392;32;35262;-83
2023/04/11 07:05:19;;;;;;;2.15;1.95;;;;;;;17.33;53.12;99162.63;4459780;32;32960;-79
2023/04/11 07:07:47;;;;;;;5.68;2.20;;;;;;;16.33;57.93;99157.75;4462589;32;34241;-82
2023/04/11 07:10:16;;;;;;;2.20;1.67;;;;;;;18.02;52.48;99150.97;4477354;32;35134;-79
2023/04/11 07:12:44;;;;;;;1.95;1.85;;;;;;;18.04;50.91;99145.63;4461736;32;35050;-80
2023/04/11 07:15:12;;;;;;;3.22;2.60;;;;;;;17.56;48.00;99135.34;4469143;32;33332;-79
2023/04/11 07:17:40;;;;;;;1.48;1.37;;;;;;;18.37;46.14;99141.44;4469126;32;34282;-79
2023/04/11 07:20:10;;;;;;;0.80;0.80;;;;;;;18.18;45.84;99140.59;4456938;32;35122;-79
2023/04/11 07:22:42;;;;;;;1.73;1.27;;;;;;;18.16;46.75;99145.06;4476565;32;35037;-80
2023/04/11 07:25:10;;;;;;;2.22;1.98;;;;;;;17.85;46.53;99143.75;4469211;32;33061;-80
2023/04/11 07:27:42;;;;;;;1.87;1.77;;;;;;;17.23;49.30;99143.72;4455266;32;34767;-79
2023/04/11 07:30:11;;;;;;;2.45;2.25;;;;;;;17.45;47.61;99142.81;4479860;32;35023;-78
2023/04/11 07:32:39;;;;;;;1.98;1.62;;;;;;;17.11;47.45;99146.84;4457850;32;33916;-80
2023/04/11 07:35:08;;;;;;;1.58;1.45;;;;;;;16.36;49.21;99148.00;4470768;32;34341;-80
2023/04/11 07:37:37;;;;;;;3.25;1.62;;;;;;;15.90;51.19;99147.91;4484776;32;34343;-79
2023/04/11 07:40:09;;;;;;;1.90;1.80;;;;;;;15.30;54.30;99152.56;4484826;32;35322;-79
2023/04/11 07:42:39;;;;;;;1.80;1.37;;;;;;;16.06;50.79;99150.84;4484778;32;35257;-79
2023/04/11 07:45:08;;;;;;;4.05;2.17;;;;;;;15.68;52.69;99147.75;4458392;32;33283;-81
2023/04/11 07:47:37;;;;;;;7.80;2.83;;;;;;;16.58;50.51;99155.06;4468930;32;34324;-82
2023/04/11 07:50:06;;;;;;;2.70;1.83;;;;;;;16.21;50.54;99146.78;4455028;32;35066;-81
2023/04/11 07:52:34;;;;;;;1.08;1.08;;;;;;;15.21;53.97;99146.75;4468836;32;35200;-80
2023/04/11 07:55:03;;;;;;;2.47;2.08;;;;;;;15.34;53.34;99143.66;4460000;32;33607;-79
2023/04/11 07:57:31;;;;;;;2.45;2.25;;;;;;;14.70;55.18;99146.59;4484456;32;33777;-79
2023/04/11 07:59:59;;;;;;;2.28;2.08;;;;;;;15.39;53.54;99140.91;4484488;32;35395;-78
2023/04/11 08:02:27;;;;;;;1.95;1.77;;;;;;;14.96;54.80;99137.03;4470252;32;34163;-82
2023/04/11 08:04:56;;;;;;;1.75;1.65;;;;;;;14.71;54.87;99148.28;4470321;32;33569;-80
2023/04/11 08:07:25;;;;;;;4.45;2.47;;;;;;;14.84;55.01;99137.44;4459739;32;33889;-81
2023/04/11 08:09:56;;;;;;;0.65;0.65;;;;;;;15.06;54.11;99132.37;4470341;32;35938;-79
2023/04/11 08:12:24;;;;;;;0.93;0.73;;;;;;;15.57;53.74;99128.06;4462209;32;34528;-80
2023/04/11 08:14:52;;;;;;;2.33;2.12;;;;;;;15.35;54.28;99118.28;4454887;32;33553;-80
2023/04/11 08:17:24;;;;;;;2.78;1.08;;;;;;;15.25;55.10;99111.66;4455949;32;34939;-80
2023/04/11 08:19:56;;;;;;;3.12;1.95;;;;;;;15.52;54.01;99112.47;4470945;32;34846;-80
2023/04/11 08:22:25;;;;;;;0.93;0.93;;;;;;;15.15;54.42;99116.31;4471453;32;35212;-79
2023/04/11 08:24:53;;;;;;;2.55;2.05;;;;;;;15.09;55.49;99114.78;4457522;32;31878;-80
2023/04/11 08:27:21;;;;;;;1.62;1.48;;;;;;;14.62;56.27;99105.81;4467662;32;33522;-82
2023/04/11 08:29:49;;;;;;;4.47;3.50;;;;;;;15.21;56.08;99103.00;4472963;32;35573;-80
2023/04/11 08:32:17;;;;;;;2.15;1.95;;;;;;;15.32;55.01;99097.41;4472951;32;34553;-80
2023/04/11 08:34:46;;;;;;;4.97;3.72;;;;;;;15.86;54.29;99092.91;4467314;32;32624;-79
2023/04/11 08:37:14;;;;;;;2.62;2.30;;;;;;;15.35;55.39;99087.66;4454640;32;33988;-80
2023/04/11 08:39:42;;;;;;;4.15;3.78;;;;;;;15.27;55.45;99087.06;4467689;32;34903;-80
2023/04/11 08:42:22;;;;;;;3.80;3.50;;;;;;;15.27;54.97;99076.56;4470244;32;35197;-80
2023/04/11 08:44:54;;;;;;;1.40;1.30;;;;;;;15.62;54.25;99073.63;4472239;32;33682;-79
2023/04/11 08:47:23;;;;;;;2.42;2.15;;;;;;;15.19;55.97;99069.88;4458543;32;34013;-80
2023/04/11 08:49:51;;;;;;;2.35;2.15;;;;;;;15.83;54.29;99066.75;4472224;32;36011;-80
2023/04/11 08:52:20;;;;;;;2.58;2.37;;;;;;;16.08;53.01;99067.59;4472492;32;34387;-80
2023/04/11 08:54:51;;;;;;;1.95;1.85;;;;;;;15.87;54.07;99047.38;4470407;32;34129;-80
2023/04/11 08:57:26;;;;;;;2.40;2.25;;;;;;;15.56;54.80;99048.44;4459237;32;33986;-79
2023/04/11 08:59:56;;;;;;;2.90;2.67;;;;;;;15.51;55.26;99053.00;4464028;32;35107;-80
2023/04/11 09:02:24;;;;;;;3.58;2.62;;;;;;;14.91;56.32;99049.81;4471852;32;33079;-79
2023/04/11 09:04:53;;;;;;;3.58;2.58;;;;;;;15.82;53.78;99059.81;4472507;32;32373;-81
2023/04/11 09:07:21;;;;;;;4.30;3.75;;;;;;;15.70;54.36;99048.81;4473969;32;34706;-82
2023/04/11 09:09:49;;;;;;;3.03;2.75;;;;;;;15.20;55.33;99055.87;4474583;32;35045;-79
2023/04/11 09:12:20;;;;;;;2.03;1.92;;;;;;;15.13;55.31;99044.72;4474410;32;34384;-79
2023/04/11 09:14:49;;;;;;;1.42;1.30;;;;;;;15.59;54.89;99043.09;4474536;32;33433;-79
2023/04/11 09:17:17;;;;;;;3.33;2.90;;;;;;;16.18;53.35;99036.56;4473177;32;34597;-80
2023/04/11 09:19:47;;;;;;;1.35;1.33;;;;;;;16.84;51.94;99025.22;4459270;32;36011;-80
2023/04/11 09:22:16;;;;;;;3.87;3.58;;;;;;;17.22;51.96;99036.78;4475035;32;34414;-81
2023/04/11 09:25:00;;;;;;;2.75;2.55;;;;;;;17.80;49.07;99027.22;4471932;32;34141;-80
2023/04/11 09:27:30;;;;;;;2.85;2.12;;;;;;;16.51;51.07;99022.16;4469050;32;34751;-78
2023/04/11 09:30:01;;;;;;;5.32;2.83;;;;;;;17.04;50.38;99011.22;4457962;32;34378;-80
2023/04/11 09:32:33;;;;;;;0.90;0.90;;;;;;;16.55;50.99;99007.97;4459733;32;35290;-80
2023/04/11 09:35:22;;;;;;;7.62;4.00;;;;;;;17.19;48.65;99010.59;4472010;32;33490;-80
2023/04/11 09:37:58;;;;;;;3.08;2.10;;;;;;;17.57;47.35;99018.56;4474493;32;34668;-82
2023/04/11 09:40:30;;;;;;;1.23;0.98;;;;;;;18.03;45.78;99017.44;4466504;32;34710;-81
2023/04/11 09:43:00;;;;;;;2.20;2.00;;;;;;;18.46;44.52;99028.56;4472061;32;35253;-80
2023/04/11 09:45:30;;;;;;;2.78;2.58;;;;;;;19.14;42.90;99021.69;4473990;32;32645;-79
2023/04/11 09:48:12;;;;;;;2.30;1.60;;;;;;;18.83;44.76;99009.22;4461471;32;37477;-81
2023/04/11 09:50:42;;;;;;;2.05;1.65;;;;;;;19.19;43.13;99004.78;4474580;32;36045;-81
2023/04/11 09:53:15;;;;;;;4.62;3.12;;;;;;;19.23;43.60;98995.75;4475117;32;34446;-82
2023/04/11 09:55:45;;;;;;;1.48;1.37;;;;;;;20.06;43.42;98983.41;4460333;32;33692;-82
2023/04/11 09:58:16;;;;;;;1.25;1.15;;;;;;;18.75;45.07;98985.81;4481033;32;33452;-81
2023/04/11 10:00:46;;;;;;;1.67;1.58;;;;;;;19.06;43.82;98984.28;4456505;32;35025;-82
2023/04/11 10:03:18;;;;;;;1.67;1.58;;;;;;;18.79;45.48;98985.66;4464146;32;35079;-82
2023/04/11 10:05:47;;;;;;;2.15;1.87;;;;;;;20.24;42.89;98986.81;4472634;32;33431;-81
2023/04/11 10:08:25;;;;;;;6.72;3.03;;;;;;;20.41;44.49;98978.78;4486202;32;34637;-81
2023/04/11 10:10:55;;;;;;;2.95;2.70;;;;;;;20.44;41.43;98977.78;4486606;32;35796;-81
2023/04/11 10:13:45;;;;;;;2.83;2.62;;;;;;;19.12;44.75;98988.41;4449670;32;33179;-81
2023/04/11 10:16:19;;;;;;;3.03;2.65;;;;;;;20.25;43.02;98968.22;4470679;32;33409;-83
2023/04/11 10:18:53;;;;;;;5.65;3.33;;;;;;;19.78;43.40;98953.22;4470482;32;33857;-81
2023/04/11 10:21:32;;;;;;;1.40;1.30;;;;;;;18.43;45.55;98954.91;4470537;32;35744;-81
2023/04/11 10:24:19;;;;;;;3.03;2.65;;;;;;;18.60;45.91;98954.94;4440792;32;33017;-80
2023/04/11 10:27:02;;;;;;;5.68;3.17;;;;;;;20.32;44.33;98949.37;4453800;32;33727;-81
2023/04/11 10:29:45;;;;;;;2.92;2.12;;;;;;;19.76;40.65;98948.97;4453828;32;33803;-80
2023/04/11 10:32:20;;;;;;;2.70;1.52;;;;;;;19.58;44.60;98940.25;4441509;32;35164;-80
2023/04/11 10:34:49;;;;;;;3.25;2.65;;;;;;;19.39;43.80;98933.28;4453457;32;33923;-79
2023/04/11 10:37:18;;;;;;;6.18;3.42;;;;;;;19.79;42.46;98927.69;4454718;32;34237;-79
2023/04/11 10:39:59;;;;;;;1.45;1.33;;;;;;;20.56;40.10;98931.22;4453737;32;33803;-80
2023/04/11 10:42:45;;;;;;;4.20;2.15;;;;;;;22.09;39.46;98931.59;4454854;32;35070;-79
2023/04/11 10:45:23;;;;;;;4.57;4.20;;;;;;;22.99;38.32;98929.19;4451928;32;34012;-79
2023/04/11 10:48:00;;;;;;;1.83;1.55;;;;;;;21.78;38.93;98916.84;4454920;32;33501;-80
2023/04/11 10:50:29;;;;;;;2.78;2.33;;;;;;;22.88;37.80;98919.31;4453491;32;33894;-80
2023/04/11 10:53:00;;;;;;;2.87;2.28;;;;;;;23.47;35.49;98915.28;4454520;32;35044;-79
2023/04/11 10:55:34;;;;;;;1.87;1.23;;;;;;;22.81;35.30;98909.22;4454574;32;35257;-80
2023/04/11 10:58:12;;;;;;;2.62;2.42;;;;;;;22.74;36.15;98900.81;4453691;32;33422;-79
2023/04/11 11:00:56;;;;;;;5.40;2.90;;;;;;;22.68;34.90;98902.09;4441124;32;34701;-79
2023/04/11 11:03:29;;;;;;;1.65;1.48;;;;;;;23.79;33.82;98907.69;4454702;32;35163;-79
2023/04/11 11:06:02;;;;;;;5.53;1.15;;;;;;;22.46;35.64;98901.84;4454710;32;34379;-80
2023/04/11 11:08:41;;;;;;;1.30;1.12;;;;;;;23.47;33.01;98894.03;4454764;32;33568;-80
2023/04/11 11:11:10;;;;;;;1.92;1.33;;;;;;;23.97;34.04;98881.59;4456402;32;32633;-84
2023/04/11 11:13:43;;;;;;;1.80;1.65;;;;;;;22.15;35.63;98880.81;4470155;32;34896;-80
2023/04/11 11:16:16;;;;;;;3.17;1.50;;;;;;;23.06;32.29;98884.53;4460348;32;34541;-80
2023/04/11 11:18:47;;;;;;;2.03;1.08;;;;;;;24.82;31.35;98872.59;4455807;32;98850;-81
2023/04/11 11:21:19;;;;;;;2.75;1.85;;;;;;;24.29;31.01;98875.69;4457357;32;33858;-80
2023/04/11 11:23:59;;;;;;;2.03;1.87;;;;;;;22.41;34.32;98870.31;4462639;32;34972;-80
2023/04/11 11:26:42;;;;;;;3.62;2.75;;;;;;;25.26;29.60;98867.47;4476891;32;34609;-81
2023/04/11 11:29:12;;;;;;;3.83;2.40;;;;;;;24.66;30.81;98861.44;4469431;32;33146;-81
2023/04/11 11:31:46;;;;;;;4.60;2.12;;;;;;;24.04;29.88;98850.06;4459864;32;33416;-80
2023/04/11 11:34:29;;;;;;;2.10;1.92;;;;;;;24.54;29.72;98853.41;4469770;32;35151;-79
2023/04/11 11:37:00;;;;;;;2.10;1.90;;;;;;;25.16;30.17;98838.00;4469943;32;34538;-81
2023/04/11 11:39:30;;;;;;;3.28;2.58;;;;;;;24.02;30.91;98847.53;4456342;32;33386;-79
2023/04/11 11:41:59;;;;;;;2.05;1.55;;;;;;;25.59;30.62;98849.72;4469778;32;33995;-80
2023/04/11 11:44:28;;;;;;;2.78;1.87;;;;;;;23.97;31.39;98844.34;4455738;32;34933;-85
2023/04/11 11:47:04;;;;;;;2.75;2.33;;;;;;;23.17;34.04;98844.78;4455792;32;34538;-81